createdAt,value
2019-04-11T00:00:28.369Z,78.33
2019-04-11T00:03:00.890Z,72.87
2019-04-11T00:05:35.343Z,73.27
2019-04-11T00:08:05.983Z,77.33
2019-04-11T00:10:37.515Z,77.23
2019-04-11T00:13:18.898Z,82.60
2019-04-11T00:15:46.734Z,76.77
2019-04-11T00:18:18.632Z,75.67
2019-04-11T00:20:56.146Z,74.70
2019-04-11T00:23:26.086Z,76.07
2019-04-11T00:25:56.000Z,78.17
2019-04-11T00:28:25.879Z,72.93
2019-04-11T00:30:56.605Z,76.03
2019-04-11T00:33:29.881Z,70.20
2019-04-11T00:36:00.270Z,71.60
2019-04-11T00:38:32.636Z,75.13
2019-04-11T00:41:02.429Z,74.17
2019-04-11T00:43:37.686Z,77.73
2019-04-11T00:46:04.380Z,84.80
2019-04-11T00:48:38.778Z,73.07
2019-04-11T00:51:09.718Z,70.17
2019-04-11T00:53:40.368Z,69.23
2019-04-11T00:56:15.791Z,78.43
2019-04-11T00:58:50.107Z,74.97
2019-04-11T01:01:21.860Z,71.40
2019-04-11T01:03:51.873Z,75.63
2019-04-11T01:06:22.459Z,73.13
2019-04-11T01:08:56.134Z,73.00
2019-04-11T01:11:25.876Z,70.23
2019-04-11T01:14:05.679Z,69.63
2019-04-11T01:16:54.333Z,73.33
2019-04-11T01:19:26.939Z,69.13
2019-04-11T01:21:59.203Z,73.23
2019-04-11T01:24:29.240Z,71.70
2019-04-11T01:26:59.344Z,69.67
2019-04-11T01:29:29.297Z,67.27
2019-04-11T01:32:02.333Z,71.43
2019-04-11T01:34:37.085Z,66.03
2019-04-11T01:37:11.413Z,68.93
2019-04-11T01:39:59.370Z,65.80
2019-04-11T01:42:29.795Z,68.20
2019-04-11T01:44:59.586Z,70.87
2019-04-11T01:48:07.041Z,70.10
2019-04-11T01:50:39.130Z,63.53
2019-04-11T01:53:10.992Z,68.70
2019-04-11T01:55:41.238Z,66.17
2019-04-11T01:58:11.067Z,69.70
2019-04-11T02:01:08.656Z,73.67
2019-04-11T02:03:57.637Z,64.53
2019-04-11T02:06:29.913Z,64.63
2019-04-11T02:09:08.177Z,68.67
2019-04-11T02:11:39.527Z,73.53
2019-04-11T02:14:16.178Z,65.77
2019-04-11T02:16:43.293Z,69.47
2019-04-11T02:19:14.081Z,67.90
2019-04-11T02:21:44.164Z,68.83
2019-04-11T02:24:37.625Z,72.97
2019-04-11T02:27:24.797Z,57.80
2019-04-11T02:29:55.609Z,61.47
2019-04-11T02:32:28.667Z,72.97
2019-04-11T02:35:02.476Z,59.03
2019-04-11T02:37:33.471Z,63.30
2019-04-11T02:40:05.506Z,65.07
2019-04-11T02:42:43.196Z,60.67
2019-04-11T02:45:27.916Z,68.40
2019-04-11T02:47:48.199Z,67.47
2019-04-11T02:50:19.732Z,66.73
2019-04-11T02:52:51.909Z,69.60
2019-04-11T02:55:27.142Z,66.20
2019-04-11T02:57:59.076Z,58.77
2019-04-11T03:00:29.171Z,68.40
2019-04-11T03:03:01.663Z,63.43
2019-04-11T03:05:35.142Z,64.67
2019-04-11T03:08:07.972Z,60.27
2019-04-11T03:10:37.755Z,62.23
2019-04-11T03:13:08.383Z,64.63
2019-04-11T03:15:57.260Z,57.33
2019-04-11T03:18:33.149Z,62.70
2019-04-11T03:20:49.762Z,61.00
2019-04-11T03:23:21.095Z,68.27
2019-04-11T03:25:54.226Z,64.20
2019-04-11T03:28:28.124Z,63.20
2019-04-11T03:31:30.385Z,70.87
2019-04-11T03:38:55.170Z,60.20
2019-04-11T03:41:25.339Z,63.73
2019-04-11T03:43:50.870Z,61.57
2019-04-11T03:46:30.991Z,59.73
2019-04-11T03:49:00.190Z,60.77
2019-04-11T03:51:27.720Z,63.30
2019-04-11T03:53:59.176Z,59.93
2019-04-11T03:56:29.509Z,61.80
2019-04-11T03:59:01.470Z,60.87
2019-04-11T04:01:31.988Z,57.27
2019-04-11T04:04:02.803Z,59.17
2019-04-11T04:06:43.271Z,59.57
2019-04-11T04:09:17.087Z,64.10
2019-04-11T04:11:54.438Z,60.17
2019-04-11T04:14:42.879Z,63.07
2019-04-11T04:17:28.534Z,62.80
2019-04-11T04:20:33.041Z,61.57
2019-04-11T04:23:25.076Z,63.80
2019-04-11T04:25:55.277Z,56.27
2019-04-11T04:28:25.093Z,66.27
2019-04-11T04:30:54.931Z,69.67
2019-04-11T04:33:26.595Z,62.33
2019-04-11T04:35:58.022Z,68.03
2019-04-11T04:38:33.756Z,64.27
2019-04-11T04:41:19.957Z,61.07
2019-04-11T04:43:43.548Z,63.30
2019-04-11T04:46:36.513Z,58.97
2019-04-11T04:48:51.522Z,63.07
2019-04-11T04:51:24.123Z,66.47
2019-04-11T04:54:08.113Z,68.67
2019-04-11T04:56:34.759Z,66.37
2019-04-11T04:59:06.980Z,65.67
2019-04-11T05:01:37.355Z,71.13
2019-04-11T05:04:09.154Z,66.40
2019-04-11T05:06:40.880Z,66.47
2019-04-11T05:09:14.834Z,63.73
2019-04-11T05:11:44.735Z,66.40
2019-04-11T05:14:16.361Z,63.73
2019-04-11T05:16:58.104Z,69.77
2019-04-11T05:19:29.910Z,71.33
2019-04-11T05:22:17.663Z,72.90
2019-04-11T05:25:01.733Z,68.90
2019-04-11T05:27:29.996Z,69.53
2019-04-11T05:30:20.382Z,67.30
2019-04-11T05:33:25.814Z,67.93
2019-04-11T05:35:58.540Z,65.80
2019-04-11T05:38:52.666Z,69.93
2019-04-11T05:41:46.713Z,69.57
2019-04-11T05:44:17.129Z,69.50
2019-04-11T05:46:54.816Z,67.33
2019-04-11T05:49:47.125Z,65.83
2019-04-11T05:52:20.865Z,65.53
2019-04-11T05:55:04.920Z,63.40
2019-04-11T05:57:40.428Z,61.17
2019-04-11T06:00:28.413Z,71.33
2019-04-11T06:03:05.732Z,66.87
2019-04-11T06:05:59.906Z,68.80
2019-04-11T06:08:30.778Z,69.20
2019-04-11T06:11:24.178Z,63.70
2019-04-11T06:14:24.916Z,66.57
2019-04-11T06:17:05.191Z,69.27
2019-04-11T06:19:53.771Z,65.63
2019-04-11T06:22:25.806Z,59.70
2019-04-11T06:25:17.154Z,60.27
2019-04-11T06:27:59.964Z,65.10
2019-04-11T06:30:48.890Z,61.70
2019-04-11T06:33:37.483Z,61.27
2019-04-11T06:36:28.485Z,58.30
2019-04-11T06:39:23.062Z,69.43
2019-04-11T06:42:04.136Z,62.43
2019-04-11T06:44:58.668Z,61.40
2019-04-11T06:47:53.156Z,67.00
2019-04-11T06:51:09.104Z,57.87
2019-04-11T06:53:46.381Z,65.73
2019-04-11T06:56:41.235Z,58.13
2019-04-11T06:59:20.605Z,59.47
2019-04-11T07:02:07.542Z,59.67
2019-04-11T07:04:39.934Z,54.33
2019-04-11T07:07:13.095Z,55.90
2019-04-11T07:09:53.471Z,56.37
2019-04-11T07:12:59.358Z,52.90
2019-04-11T07:15:52.778Z,58.10
2019-04-11T07:18:54.832Z,55.23
2019-04-11T07:21:37.670Z,57.90
2019-04-11T07:24:48.169Z,57.30
2019-04-11T07:27:57.183Z,54.90
2019-04-11T07:30:53.653Z,57.73
2019-04-11T07:33:59.143Z,53.43
2019-04-11T07:36:46.323Z,57.50
2019-04-11T07:39:35.486Z,53.93
2019-04-11T07:42:43.358Z,59.87
2019-04-11T07:45:18.692Z,55.70
2019-04-11T07:47:58.150Z,61.83
2019-04-11T07:50:27.886Z,64.00
2019-04-11T07:53:01.456Z,51.27
2019-04-11T07:55:35.022Z,60.83
2019-04-11T07:58:31.563Z,58.80
2019-04-11T08:01:22.042Z,58.20
2019-04-11T08:04:17.281Z,62.80
2019-04-11T08:07:02.941Z,62.23
2019-04-11T08:09:53.016Z,50.23
2019-04-11T08:12:43.146Z,57.27
2019-04-11T08:15:33.484Z,57.57
2019-04-11T08:18:26.418Z,61.17
2019-04-11T08:21:35.346Z,58.40
2019-04-11T08:24:45.191Z,56.47
2019-04-11T08:27:54.910Z,51.90
2019-04-11T08:30:33.081Z,50.90
2019-04-11T08:33:07.482Z,61.03
2019-04-11T08:35:57.140Z,70.47
2019-04-11T08:38:36.660Z,54.57
2019-04-11T08:41:29.997Z,53.73
2019-04-11T08:43:59.889Z,67.00
2019-04-11T08:46:33.633Z,54.17
2019-04-11T08:49:05.683Z,48.97
2019-04-11T08:51:35.746Z,49.53
2019-04-11T08:54:31.338Z,53.03
2019-04-11T08:57:03.366Z,53.10
2019-04-11T08:59:51.899Z,55.83
2019-04-11T09:02:33.266Z,53.80
2019-04-11T09:05:33.348Z,51.23
2019-04-11T09:08:30.077Z,61.20
2019-04-11T09:11:17.009Z,54.23
2019-04-11T09:14:06.105Z,54.23
2019-04-11T09:16:54.093Z,53.93
2019-04-11T09:19:43.114Z,58.93
2019-04-11T09:22:49.673Z,55.63
2019-04-11T09:25:37.113Z,58.33
2019-04-11T09:28:11.352Z,58.93
2019-04-11T09:31:01.056Z,57.67
2019-04-11T09:34:03.621Z,50.27
2019-04-11T09:36:40.903Z,59.70
2019-04-11T09:39:45.554Z,55.70
2019-04-11T09:42:28.409Z,61.30
2019-04-11T09:45:15.478Z,57.77
2019-04-11T09:48:13.456Z,55.07
2019-04-11T09:50:55.137Z,57.87
2019-04-11T09:53:30.339Z,53.77
2019-04-11T09:56:33.684Z,55.73
2019-04-11T09:59:16.411Z,53.70
2019-04-11T10:02:41.993Z,61.33
2019-04-11T10:05:35.689Z,58.67
2019-04-11T10:08:13.331Z,57.53
2019-04-11T10:11:04.155Z,54.93
2019-04-11T10:14:01.760Z,56.17
2019-04-11T10:17:08.737Z,58.07
2019-04-11T10:20:04.526Z,55.03
2019-04-11T10:23:27.053Z,52.20
2019-04-11T10:26:03.415Z,52.07
2019-04-11T10:29:04.378Z,55.40
2019-04-11T10:31:36.751Z,55.23
2019-04-11T10:34:35.417Z,56.47
2019-04-11T10:37:35.877Z,57.30
2019-04-11T10:40:28.126Z,54.40
2019-04-11T10:42:58.202Z,49.47
2019-04-11T10:45:55.753Z,43.57
2019-04-11T10:48:35.606Z,50.13
2019-04-11T10:51:17.297Z,46.80
2019-04-11T10:53:52.644Z,48.13
2019-04-11T10:56:41.790Z,49.20
2019-04-11T10:59:15.984Z,50.73
2019-04-11T11:02:17.735Z,52.67
2019-04-11T11:04:56.798Z,50.00
2019-04-11T11:07:59.220Z,48.43
2019-04-11T11:10:33.250Z,46.67
2019-04-11T11:13:27.482Z,52.70
2019-04-11T11:16:00.161Z,53.53
2019-04-11T11:19:15.652Z,46.93
2019-04-11T11:21:31.832Z,51.93
2019-04-11T11:24:30.107Z,55.07
2019-04-11T11:27:04.520Z,49.77
2019-04-11T11:30:13.141Z,50.50
2019-04-11T11:32:45.350Z,52.47
2019-04-11T11:35:37.054Z,52.63
2019-04-11T11:38:09.370Z,48.60
2019-04-11T11:41:08.062Z,50.93
2019-04-11T11:43:37.701Z,48.70
2019-04-11T11:46:38.294Z,52.53
2019-04-11T11:49:38.873Z,49.90
2019-04-11T11:52:11.090Z,51.00
2019-04-11T11:54:55.648Z,49.37
2019-04-11T11:58:16.809Z,51.60
2019-04-11T12:00:46.263Z,49.80
2019-04-11T12:04:00.160Z,54.03
2019-04-11T12:06:29.194Z,53.13
2019-04-11T12:09:15.820Z,56.70
2019-04-11T12:11:56.994Z,52.97
2019-04-11T12:14:45.335Z,57.73
2019-04-11T12:17:25.239Z,49.87
2019-04-11T12:20:19.160Z,47.80
2019-04-11T12:23:48.502Z,48.00
2019-04-11T12:26:13.669Z,55.23
2019-04-11T12:29:34.357Z,52.90
2019-04-11T12:32:08.366Z,55.30
2019-04-11T12:34:57.725Z,58.23
2019-04-11T12:37:39.706Z,50.30
2019-04-11T12:40:29.602Z,47.53
2019-04-11T12:43:07.634Z,65.67
2019-04-11T12:46:05.658Z,52.33
2019-04-11T12:48:46.733Z,45.50
2019-04-11T12:51:34.447Z,56.10
2019-04-11T12:57:01.658Z,48.47
2019-04-11T12:59:37.717Z,52.23
2019-04-11T13:02:27.243Z,51.67
2019-04-11T13:04:58.462Z,52.50
2019-04-11T13:07:51.165Z,53.77
2019-04-11T13:10:30.074Z,56.87
2019-04-11T13:13:18.757Z,48.80
2019-04-11T13:16:12.746Z,62.10
2019-04-11T13:19:05.988Z,54.50
2019-04-11T13:21:54.415Z,59.10
2019-04-11T13:24:40.378Z,54.80
2019-04-11T13:27:16.431Z,48.60
2019-04-11T13:30:05.014Z,54.10
2019-04-11T13:33:01.758Z,53.17
2019-04-11T13:36:04.803Z,51.50
2019-04-11T13:38:40.259Z,45.73
2019-04-11T13:41:30.456Z,54.57
2019-04-11T13:44:09.877Z,56.83
2019-04-11T13:47:15.059Z,50.83
2019-04-11T13:50:16.795Z,54.47
2019-04-11T13:52:56.562Z,48.70
2019-04-11T13:55:43.417Z,52.87
2019-04-11T13:58:30.299Z,48.90
2019-04-11T14:01:01.198Z,53.10
2019-04-11T14:03:58.210Z,49.97
2019-04-11T14:06:35.049Z,49.53
2019-04-11T14:09:38.378Z,51.40
2019-04-11T14:12:12.227Z,50.43
2019-04-11T14:15:14.446Z,61.63
2019-04-11T14:18:01.493Z,57.07
2019-04-11T14:20:56.782Z,56.03
2019-04-11T14:24:16.939Z,54.80
2019-04-11T14:27:24.317Z,43.20
2019-04-11T14:30:18.580Z,55.77
2019-04-11T14:32:49.316Z,45.90
2019-04-11T14:35:49.895Z,50.00
2019-04-11T14:38:21.123Z,46.67
2019-04-11T14:41:21.481Z,52.03
2019-04-11T14:43:56.675Z,42.87
2019-04-11T14:46:46.589Z,46.23
2019-04-11T14:49:23.040Z,49.40
2019-04-11T14:52:29.822Z,58.43
2019-04-11T14:55:01.646Z,48.17
2019-04-11T14:58:09.952Z,49.47
2019-04-11T15:00:43.291Z,46.17
2019-04-11T15:03:27.725Z,50.10
2019-04-11T15:06:04.788Z,58.50
2019-04-11T15:08:54.049Z,53.57
2019-04-11T15:11:44.168Z,55.37
2019-04-11T15:14:35.935Z,48.73
2019-04-11T15:17:24.421Z,49.10
2019-04-11T15:20:05.031Z,49.03
2019-04-11T15:22:49.265Z,55.50
2019-04-11T15:25:40.625Z,51.83
2019-04-11T15:28:34.959Z,55.43
2019-04-11T15:31:23.934Z,56.70
2019-04-11T15:34:11.150Z,50.27
2019-04-11T15:36:44.929Z,47.93
2019-04-11T15:39:44.115Z,49.83
2019-04-11T15:42:26.793Z,51.73
2019-04-11T15:45:14.022Z,45.20
2019-04-11T15:47:50.596Z,48.77
2019-04-11T15:50:49.833Z,52.30
2019-04-11T15:53:27.363Z,62.57
2019-04-11T15:56:15.824Z,52.00
2019-04-11T15:58:50.001Z,54.27
2019-04-11T16:01:47.201Z,50.87
2019-04-11T16:04:31.349Z,58.13
2019-04-11T16:07:26.129Z,52.30
2019-04-11T16:09:56.993Z,55.50
2019-04-11T16:12:56.972Z,53.90
2019-04-11T16:15:35.624Z,56.93
2019-04-11T16:18:27.493Z,57.00
2019-04-11T16:20:58.861Z,51.87
2019-04-11T16:23:46.519Z,54.47
2019-04-11T16:26:21.569Z,51.47
2019-04-11T16:29:18.659Z,54.13
2019-04-11T16:31:54.766Z,51.07
2019-04-11T16:34:59.067Z,51.10
2019-04-11T16:37:28.956Z,51.63
2019-04-11T16:40:43.672Z,54.37
2019-04-11T16:43:14.765Z,56.83
2019-04-11T16:46:18.652Z,55.93
2019-04-11T16:48:51.133Z,59.80
2019-04-11T16:51:30.887Z,54.13
2019-04-11T16:54:09.556Z,50.13
2019-04-11T16:56:41.726Z,61.77
2019-04-11T16:59:12.781Z,57.93
2019-04-11T17:01:42.937Z,49.50
2019-04-11T17:04:18.409Z,45.83
2019-04-11T17:06:57.911Z,48.90
2019-04-11T17:09:42.225Z,54.50
2019-04-11T17:12:17.773Z,50.73
2019-04-11T17:15:30.621Z,54.97
2019-04-11T17:18:05.825Z,52.97
2019-04-11T17:21:00.172Z,50.57
2019-04-11T17:23:38.770Z,58.90
2019-04-11T17:26:11.281Z,50.13
2019-04-11T17:29:00.955Z,51.77
2019-04-11T17:31:34.713Z,46.90
2019-04-11T17:34:05.635Z,50.20
2019-04-11T17:36:37.225Z,50.23
2019-04-11T17:39:13.825Z,47.30
2019-04-11T17:41:44.538Z,48.30
2019-04-11T17:44:17.463Z,47.10
2019-04-11T17:47:26.786Z,51.30
2019-04-11T17:49:55.908Z,52.53
2019-04-11T17:52:27.278Z,53.03
2019-04-11T17:55:00.126Z,48.47
2019-04-11T17:57:30.554Z,51.73
2019-04-11T18:00:00.312Z,46.17
2019-04-11T18:02:42.045Z,52.30
2019-04-11T18:05:17.190Z,51.00
2019-04-11T18:07:51.423Z,52.90
2019-04-11T18:10:25.553Z,53.40
2019-04-11T18:13:02.384Z,53.07
2019-04-11T18:15:37.201Z,50.77
2019-04-11T18:18:11.357Z,52.10
2019-04-11T18:20:55.345Z,48.30
2019-04-11T18:24:07.712Z,52.93
2019-04-11T18:27:08.548Z,54.27
2019-04-11T18:29:38.354Z,51.90
2019-04-11T18:32:10.536Z,56.53
2019-04-11T18:35:05.543Z,51.50
2019-04-11T18:37:37.837Z,50.10
2019-04-11T18:40:21.781Z,59.73
2019-04-11T18:42:52.057Z,52.67
2019-04-11T18:48:13.669Z,56.67
2019-04-11T18:51:04.188Z,55.40
2019-04-11T18:53:55.797Z,56.83
2019-04-11T18:56:28.083Z,54.80
2019-04-11T18:59:29.284Z,54.93
2019-04-11T19:02:19.349Z,55.17
2019-04-11T19:04:57.934Z,60.63
2019-04-11T19:07:50.131Z,58.20
2019-04-11T19:10:25.099Z,58.93
2019-04-11T19:13:03.071Z,54.67
2019-04-11T19:15:56.964Z,57.00
2019-04-11T19:18:54.444Z,61.70
2019-04-11T19:21:30.342Z,59.43
2019-04-11T19:24:00.827Z,58.80
2019-04-11T19:26:32.392Z,63.27
2019-04-11T19:29:34.102Z,56.07
2019-04-11T19:32:12.102Z,55.57
2019-04-11T19:34:42.295Z,60.53
2019-04-11T19:38:21.682Z,65.97
2019-04-11T19:40:26.672Z,66.77
2019-04-11T19:42:56.316Z,55.40
2019-04-11T19:45:35.101Z,60.67
2019-04-11T19:48:32.089Z,62.60
2019-04-11T19:51:17.120Z,56.53
2019-04-11T19:53:55.555Z,58.97
2019-04-11T19:57:10.564Z,70.63
2019-04-11T19:59:42.604Z,61.30
2019-04-11T20:02:32.465Z,65.50
2019-04-11T20:05:13.547Z,70.60
2019-04-11T20:08:05.653Z,63.13
2019-04-11T20:11:01.004Z,62.20
2019-04-11T20:13:32.339Z,63.77
2019-04-11T20:16:01.736Z,66.27
2019-04-11T20:18:37.666Z,65.70
2019-04-11T20:21:24.646Z,65.30
2019-04-11T20:24:29.589Z,62.77
2019-04-11T20:27:00.003Z,65.17
2019-04-11T20:29:57.561Z,63.33
2019-04-11T20:32:33.069Z,58.17
2019-04-11T20:35:02.680Z,58.30
2019-04-11T20:37:39.249Z,64.67
2019-04-11T20:40:06.619Z,60.87
2019-04-11T20:42:48.002Z,56.87
2019-04-11T20:45:20.698Z,60.03
2019-04-11T20:47:50.312Z,56.40
2019-04-11T20:53:55.187Z,64.10
2019-04-11T20:56:46.035Z,63.93
2019-04-11T20:59:34.613Z,59.30
2019-04-11T21:02:04.490Z,75.73
2019-04-11T21:04:54.324Z,61.13
2019-04-11T21:07:47.092Z,70.27
2019-04-11T21:10:19.578Z,61.07
2019-04-11T21:13:12.515Z,65.83
2019-04-11T21:15:48.632Z,61.07
2019-04-11T21:18:18.408Z,64.50
2019-04-11T21:21:05.008Z,61.20
2019-04-11T21:23:57.993Z,57.07
2019-04-11T21:26:29.513Z,55.20
2019-04-11T21:29:05.457Z,64.67
2019-04-11T21:31:43.692Z,54.77
2019-04-11T21:34:13.469Z,66.03
2019-04-11T21:36:50.940Z,63.23
2019-04-11T21:39:21.460Z,60.87
2019-04-11T21:41:51.364Z,58.77
2019-04-11T21:44:24.726Z,57.83
2019-04-11T21:46:55.326Z,64.47
2019-04-11T21:49:28.802Z,62.93
2019-04-11T21:52:12.021Z,62.93
2019-04-11T21:54:45.120Z,63.37
2019-04-11T21:57:10.646Z,65.97
2019-04-11T21:59:40.265Z,63.27
2019-04-11T22:02:16.314Z,65.00
2019-04-11T22:04:51.046Z,67.27
2019-04-11T22:07:25.344Z,61.97
2019-04-11T22:09:58.943Z,68.40
2019-04-11T22:12:48.577Z,63.10
2019-04-11T22:15:20.074Z,59.93
2019-04-11T22:17:50.235Z,65.30
2019-04-11T22:20:25.041Z,69.43
2019-04-11T22:23:17.754Z,62.43
2019-04-11T22:25:52.286Z,59.43
2019-04-11T22:28:25.026Z,59.70
2019-04-11T22:31:25.062Z,59.03
2019-04-11T22:34:02.466Z,62.43
2019-04-11T22:36:36.586Z,62.73
2019-04-11T22:39:18.433Z,67.03
2019-04-11T22:41:58.151Z,61.67
2019-04-11T22:44:29.101Z,62.23
2019-04-11T22:46:58.974Z,60.60
2019-04-11T22:49:29.734Z,66.70
2019-04-11T22:52:17.301Z,62.90
2019-04-11T22:55:11.300Z,65.97
2019-04-11T22:58:09.461Z,67.07
2019-04-11T23:01:14.025Z,72.27
2019-04-11T23:03:53.492Z,62.93
2019-04-11T23:06:23.422Z,59.30
2019-04-11T23:08:55.760Z,65.77
2019-04-11T23:11:29.217Z,58.20
2019-04-11T23:14:04.116Z,61.10
2019-04-11T23:17:01.105Z,62.53
2019-04-11T23:19:37.840Z,53.33
2019-04-11T23:22:21.355Z,62.57
2019-04-11T23:24:55.655Z,64.20
2019-04-11T23:27:27.684Z,62.93
2019-04-11T23:30:04.638Z,61.30
2019-04-11T23:32:35.498Z,60.60
2019-04-11T23:35:05.194Z,57.17
2019-04-11T23:37:51.229Z,58.33
2019-04-11T23:40:43.787Z,60.57
2019-04-11T23:43:44.905Z,58.53
2019-04-11T23:46:18.925Z,56.37
2019-04-11T23:48:55.491Z,58.80
2019-04-11T23:51:26.296Z,57.77
2019-04-11T23:53:58.859Z,53.87
2019-04-11T23:56:30.595Z,54.70
2019-04-11T23:59:01.550Z,52.40
